Time;durP1;ratioP1;P1;durP2;ratioP2;P2;SDS_P1;SDS_P2;PMS_P1;PMS_P2;Temp;Humidity;BMP_temperature;BMP_pressure;BME280_temperature;BME280_humidity;BME280_pressure;Samples;Min_cycle;Max_cycle;Signal;HPM_P1;HPM_P2
2023/09/11 00:03:30;;;;;;;21.08;17.50;;;15.20;99.90;;;;;;8215684;28;20030;-83
2023/09/11 00:07:31;;;;;;;18.50;14.82;;;15.20;99.90;;;;;;8217467;28;20660;-84
2023/09/11 00:11:31;;;;;;;21.20;16.00;;;15.10;99.90;;;;;;8218433;28;20069;-83
2023/09/11 00:15:34;;;;;;;22.08;16.02;;;14.90;99.90;;;;;;8224851;28;20094;-84
2023/09/11 00:19:34;;;;;;;24.17;17.23;;;14.90;99.90;;;;;;8230494;28;20023;-84
2023/09/11 00:23:35;;;;;;;20.13;16.00;;;14.80;99.90;;;;;;8225808;28;20130;-84
2023/09/11 00:27:39;;;;;;;21.02;18.30;;;14.70;99.90;;;;;;8225124;28;20038;-83
2023/09/11 00:31:39;;;;;;;24.17;19.05;;;14.70;99.90;;;;;;8224753;28;20027;-84
2023/09/11 00:35:44;;;;;;;22.60;18.27;;;14.70;99.90;;;;;;8224072;28;20041;-85
2023/09/11 00:39:45;;;;;;;23.40;18.48;;;14.80;99.90;;;;;;8238870;28;20086;-84
2023/09/11 00:43:45;;;;;;;24.33;18.33;;;14.80;99.90;;;;;;8239375;28;20911;-84
2023/09/11 00:47:47;;;;;;;22.25;18.38;;;14.80;99.90;;;;;;8222680;28;20082;-83
2023/09/11 00:51:50;;;;;;;23.50;17.65;;;14.80;99.90;;;;;;8222827;28;20066;-84
2023/09/11 00:55:52;;;;;;;19.00;15.70;;;14.70;99.90;;;;;;8217475;28;20034;-84
2023/09/11 00:59:53;;;;;;;21.17;18.15;;;14.60;99.90;;;;;;8238652;28;20114;-84
2023/09/11 01:03:54;;;;;;;21.25;17.35;;;14.60;99.90;;;;;;8223434;28;20046;-84
2023/09/11 01:07:55;;;;;;;19.40;15.77;;;14.60;99.90;;;;;;8238389;28;20029;-83
2023/09/11 01:11:55;;;;;;;21.40;17.27;;;14.40;99.90;;;;;;8222277;28;20611;-84
2023/09/11 01:16:00;;;;;;;24.52;19.58;;;14.40;99.90;;;;;;8222697;28;20085;-84
2023/09/11 01:20:12;;;;;;;24.05;19.45;;;14.40;99.90;;;;;;8221521;28;20026;-84
2023/09/11 01:24:31;;;;;;;20.27;15.82;;;14.40;99.90;;;;;;8221709;28;20034;-84
2023/09/11 01:28:37;;;;;;;21.48;17.27;;;14.30;99.90;;;;;;8222054;28;20035;-84
2023/09/11 01:32:38;;;;;;;23.75;19.85;;;14.20;99.90;;;;;;8221514;28;20676;-84
2023/09/11 01:36:39;;;;;;;27.27;21.02;;;14.30;99.90;;;;;;8222386;28;20742;-84
2023/09/11 01:40:42;;;;;;;28.65;22.08;;;14.30;99.90;;;;;;8222574;28;20027;-83
2023/09/11 01:44:46;;;;;;;26.40;21.17;;;14.40;99.90;;;;;;8243443;28;20039;-84
2023/09/11 01:48:48;;;;;;;25.13;16.25;;;14.40;99.90;;;;;;8243535;28;20073;-83
2023/09/11 01:52:50;;;;;;;22.90;17.95;;;14.30;99.90;;;;;;8234938;28;20066;-83
2023/09/11 01:56:51;;;;;;;22.85;17.42;;;14.10;99.90;;;;;;8222837;28;20023;-84
2023/09/11 02:00:51;;;;;;;27.00;20.48;;;13.90;99.90;;;;;;8241306;28;20383;-83
2023/09/11 02:04:52;;;;;;;27.13;18.70;;;13.80;99.90;;;;;;8226540;28;20145;-83
2023/09/11 02:08:54;;;;;;;20.77;18.17;;;13.80;99.90;;;;;;8227595;28;20031;-84
2023/09/11 02:12:55;;;;;;;21.42;17.73;;;13.70;99.90;;;;;;8226497;28;20042;-83
2023/09/11 02:17:02;;;;;;;28.92;20.60;;;13.60;99.90;;;;;;8226729;28;20034;-84
2023/09/11 02:21:03;;;;;;;24.80;18.95;;;13.70;99.90;;;;;;8230706;28;20026;-83
2023/09/11 02:25:03;;;;;;;29.98;18.60;;;13.70;99.90;;;;;;8242682;28;20046;-83
2023/09/11 02:29:04;;;;;;;22.42;18.40;;;13.80;99.90;;;;;;8242805;28;20027;-83
2023/09/11 02:33:05;;;;;;;23.42;17.60;;;13.60;99.90;;;;;;8226218;28;20026;-83
2023/09/11 02:37:05;;;;;;;23.35;18.17;;;13.50;99.90;;;;;;8222586;28;20027;-83
2023/09/11 02:41:06;;;;;;;24.90;18.60;;;13.40;99.90;;;;;;8230431;28;20027;-83
2023/09/11 02:45:07;;;;;;;26.10;19.77;;;13.40;99.90;;;;;;8233962;28;20062;-82
2023/09/11 02:49:07;;;;;;;26.90;18.10;;;13.40;99.90;;;;;;8241722;28;20035;-84
2023/09/11 02:53:09;;;;;;;21.65;16.65;;;13.30;99.90;;;;;;8224076;28;20081;-84
2023/09/11 02:57:10;;;;;;;22.33;18.17;;;13.20;99.90;;;;;;8240945;28;20399;-83
2023/09/11 03:01:10;;;;;;;22.05;17.45;;;13.10;99.90;;;;;;8225783;28;20022;-83
2023/09/11 03:05:11;;;;;;;27.23;19.48;;;12.90;99.90;;;;;;8226341;28;20038;-82
2023/09/11 03:09:11;;;;;;;27.13;19.67;;;12.90;99.90;;;;;;8225768;28;20663;-83
2023/09/11 03:13:12;;;;;;;27.77;20.52;;;12.90;99.90;;;;;;8225496;28;20042;-83
2023/09/11 03:17:14;;;;;;;32.63;22.60;;;12.90;99.90;;;;;;8241573;28;20033;-83
2023/09/11 03:21:14;;;;;;;23.15;19.17;;;12.90;99.90;;;;;;8227010;28;20023;-83
2023/09/11 03:25:15;;;;;;;29.00;21.05;;;13.10;99.90;;;;;;8224173;28;20019;-83
2023/09/11 03:29:17;;;;;;;31.95;22.48;;;13.00;99.90;;;;;;8222575;28;20026;-83
2023/09/11 03:33:17;;;;;;;31.73;22.63;;;13.00;99.90;;;;;;8225855;28;20110;-83
2023/09/11 03:37:18;;;;;;;28.70;21.58;;;13.00;99.90;;;;;;8221286;28;20600;-83
2023/09/11 03:41:18;;;;;;;30.00;22.30;;;13.10;99.90;;;;;;8224859;28;20224;-83
2023/09/11 03:45:19;;;;;;;35.22;24.65;;;13.00;99.90;;;;;;8229512;28;20026;-83
2023/09/11 03:49:19;;;;;;;32.75;22.13;;;13.00;99.90;;;;;;8248264;28;20037;-82
2023/09/11 03:53:20;;;;;;;27.40;20.65;;;13.00;99.90;;;;;;8236778;28;20448;-82
2023/09/11 03:57:21;;;;;;;32.55;23.40;;;12.90;99.90;;;;;;8232690;28;20029;-83
2023/09/11 04:01:21;;;;;;;22.90;17.80;;;12.80;99.90;;;;;;8234027;28;20081;-83
2023/09/11 04:05:22;;;;;;;26.13;18.92;;;12.80;99.90;;;;;;8226828;28;20023;-81
2023/09/11 04:09:22;;;;;;;30.60;22.38;;;12.60;99.90;;;;;;8230424;28;20054;-82
2023/09/11 04:13:23;;;;;;;26.38;20.38;;;12.50;99.90;;;;;;8238243;28;20042;-82
2023/09/11 04:17:23;;;;;;;30.30;22.45;;;12.60;99.90;;;;;;8241335;28;20058;-82
2023/09/11 04:21:24;;;;;;;33.70;22.90;;;12.60;99.90;;;;;;8258739;28;20065;-82
2023/09/11 04:25:24;;;;;;;33.30;22.85;;;12.50;99.90;;;;;;8236103;28;20622;-83
2023/09/11 04:29:25;;;;;;;37.05;25.88;;;12.50;99.90;;;;;;8224658;28;20596;-83
2023/09/11 04:33:27;;;;;;;33.05;23.73;;;12.60;99.90;;;;;;8225628;28;20115;-83
2023/09/11 04:37:30;;;;;;;27.13;19.98;;;12.60;99.90;;;;;;8237047;28;20018;-79
2023/09/11 04:41:30;;;;;;;25.50;19.60;;;12.50;99.90;;;;;;8217644;28;20031;-78
2023/09/11 04:45:31;;;;;;;28.27;19.63;;;12.40;99.90;;;;;;8214922;28;20038;-79
2023/09/11 04:49:31;;;;;;;28.90;20.13;;;12.30;99.90;;;;;;8230907;28;20138;-79
2023/09/11 04:53:32;;;;;;;29.60;21.67;;;12.40;99.90;;;;;;8227396;28;20538;-80
2023/09/11 04:57:32;;;;;;;32.08;22.00;;;12.30;99.90;;;;;;8214226;28;20023;-78
2023/09/11 05:01:33;;;;;;;31.83;20.50;;;12.30;99.90;;;;;;8224042;28;20089;-78
2023/09/11 05:05:40;;;;;;;25.73;19.90;;;12.30;99.90;;;;;;8212242;28;20022;-77
2023/09/11 05:09:41;;;;;;;28.25;21.48;;;12.30;99.90;;;;;;8209199;28;20030;-77
2023/09/11 05:13:41;;;;;;;29.90;20.92;;;12.40;99.90;;;;;;8212091;28;20109;-78
2023/09/11 05:17:42;;;;;;;34.63;24.63;;;12.40;99.90;;;;;;8231378;28;20659;-77
2023/09/11 05:21:42;;;;;;;38.47;26.15;;;12.60;99.90;;;;;;8235202;28;20423;-77
2023/09/11 05:25:44;;;;;;;37.58;26.77;;;12.80;99.90;;;;;;8235682;28;20530;-79
2023/09/11 05:29:45;;;;;;;37.28;27.00;;;13.00;99.90;;;;;;8220057;28;20627;-79
2023/09/11 05:33:45;;;;;;;39.10;26.88;;;13.10;99.90;;;;;;8220354;28;20038;-79
2023/09/11 05:37:46;;;;;;;42.65;28.88;;;13.20;99.90;;;;;;8218898;28;20384;-79
2023/09/11 05:41:46;;;;;;;42.70;27.90;;;13.30;99.90;;;;;;8220013;28;20034;-80
2023/09/11 05:45:47;;;;;;;37.47;26.70;;;13.30;99.90;;;;;;8219774;28;20057;-79
2023/09/11 05:49:48;;;;;;;35.55;25.42;;;13.40;99.90;;;;;;8221874;28;20454;-79
2023/09/11 05:53:48;;;;;;;32.90;24.95;;;13.50;99.90;;;;;;8215772;28;20236;-80
2023/09/11 05:57:49;;;;;;;32.70;22.77;;;13.60;99.90;;;;;;8220825;28;20023;-79
2023/09/11 06:01:49;;;;;;;25.73;21.33;;;13.80;99.90;;;;;;8236917;28;20491;-79
2023/09/11 06:05:50;;;;;;;30.48;23.88;;;13.80;99.90;;;;;;8235685;28;20023;-78
2023/09/11 06:09:54;;;;;;;29.52;21.58;;;13.90;99.90;;;;;;8227816;28;20707;-80
2023/09/11 06:13:54;;;;;;;29.48;21.48;;;14.10;99.90;;;;;;8235776;28;20743;-79
2023/09/11 06:17:55;;;;;;;33.13;23.30;;;14.20;99.90;;;;;;8235469;28;20035;-79
2023/09/11 06:21:56;;;;;;;30.27;22.40;;;14.30;99.90;;;;;;8236262;28;20047;-79
2023/09/11 06:25:57;;;;;;;27.65;21.67;;;14.50;99.90;;;;;;8234850;28;20198;-81
2023/09/11 06:29:57;;;;;;;27.13;20.80;;;14.60;99.90;;;;;;8235646;28;20027;-79
2023/09/11 06:33:58;;;;;;;28.67;22.85;;;14.80;99.90;;;;;;8235031;28;20038;-80
2023/09/11 06:37:59;;;;;;;24.35;21.15;;;14.90;99.90;;;;;;8234953;28;20042;-81
2023/09/11 06:41:59;;;;;;;24.45;20.13;;;15.10;99.90;;;;;;8221980;28;20027;-81
2023/09/11 06:46:00;;;;;;;24.50;19.98;;;15.40;99.90;;;;;;8237024;28;20534;-79
2023/09/11 06:50:00;;;;;;;22.10;19.05;;;15.90;99.90;;;;;;8237149;28;20050;-81
2023/09/11 06:54:03;;;;;;;25.55;20.90;;;16.00;99.90;;;;;;8219960;28;20027;-80
2023/09/11 06:58:04;;;;;;;25.67;20.85;;;16.20;99.90;;;;;;8235577;28;20058;-80
2023/09/11 07:02:05;;;;;;;25.00;20.52;;;16.40;99.90;;;;;;8222302;28;20031;-80
2023/09/11 07:06:06;;;;;;;23.55;19.08;;;16.60;99.90;;;;;;8220706;28;20042;-79
2023/09/11 07:10:12;;;;;;;19.73;17.63;;;16.80;99.90;;;;;;8220543;28;20640;-80
2023/09/11 07:14:22;;;;;;;22.48;16.58;;;17.20;99.90;;;;;;8234797;28;20031;-80
2023/09/11 07:18:23;;;;;;;20.40;16.87;;;17.50;99.90;;;;;;8234014;28;20517;-80
2023/09/11 07:22:23;;;;;;;18.60;16.13;;;17.70;99.90;;;;;;8217712;28;20023;-81
2023/09/11 07:26:24;;;;;;;18.85;16.27;;;17.90;99.90;;;;;;8232981;28;20637;-78
2023/09/11 07:30:24;;;;;;;18.63;16.73;;;18.20;99.90;;;;;;8217503;28;20511;-79
2023/09/11 07:34:25;;;;;;;23.80;18.23;;;18.60;99.90;;;;;;8216638;28;20061;-79
2023/09/11 07:38:25;;;;;;;24.42;15.18;;;18.90;99.90;;;;;;8216993;28;20098;-81
2023/09/11 07:42:26;;;;;;;16.58;14.55;;;19.20;99.90;;;;;;8216715;28;20034;-80
2023/09/11 07:46:28;;;;;;;17.92;13.95;;;19.60;99.90;;;;;;8216903;28;20093;-80
2023/09/11 07:50:28;;;;;;;24.73;21.15;;;19.90;99.90;;;;;;8231441;28;20030;-79
2023/09/11 07:54:29;;;;;;;19.05;13.63;;;20.20;99.90;;;;;;8231223;28;20054;-79
2023/09/11 07:58:30;;;;;;;15.13;13.00;;;20.80;99.90;;;;;;8230848;28;20035;-79
2023/09/11 08:02:31;;;;;;;18.48;13.60;;;21.10;99.90;;;;;;8216203;28;20042;-80
2023/09/11 08:06:32;;;;;;;16.83;12.52;;;21.30;99.90;;;;;;8230782;28;20098;-79
2023/09/11 08:10:32;;;;;;;16.25;12.07;;;21.60;99.90;;;;;;8230419;28;20518;-79
2023/09/11 08:14:33;;;;;;;14.30;12.27;;;22.30;99.90;;;;;;8215025;28;20034;-80
2023/09/11 08:18:34;;;;;;;14.65;11.75;;;22.60;99.90;;;;;;8214925;28;20459;-79
2023/09/11 08:22:34;;;;;;;13.20;11.73;;;22.60;99.90;;;;;;8229230;28;20038;-80
2023/09/11 08:26:35;;;;;;;14.93;10.40;;;23.00;99.90;;;;;;8214659;28;20292;-80
2023/09/11 08:30:35;;;;;;;14.95;9.30;;;23.40;99.90;;;;;;8230346;28;20121;-80
2023/09/11 08:34:36;;;;;;;13.60;9.27;;;24.00;99.90;;;;;;8229224;28;20065;-79
2023/09/11 08:38:37;;;;;;;11.52;9.05;;;24.70;99.90;;;;;;8229183;28;20574;-80
2023/09/11 08:42:37;;;;;;;15.07;10.32;;;25.30;99.90;;;;;;8236478;28;20054;-80
2023/09/11 08:46:42;;;;;;;12.15;9.30;;;25.60;99.90;;;;;;8238354;28;20272;-80
2023/09/11 08:50:54;;;;;;;11.77;8.10;;;25.80;99.90;;;;;;8212946;28;20076;-78
2023/09/11 08:54:59;;;;;;;9.88;8.20;;;26.50;99.90;;;;;;8225889;28;20026;-79
2023/09/11 08:59:03;;;;;;;9.55;8.07;;;26.70;99.90;;;;;;8217992;28;20023;-80
2023/09/11 09:03:04;;;;;;;8.32;7.50;;;26.40;99.90;;;;;;8219847;28;20348;-79
2023/09/11 09:07:07;;;;;;;11.30;8.43;;;27.10;99.90;;;;;;8219483;28;20038;-79
2023/09/11 09:11:07;;;;;;;10.48;8.50;;;27.50;99.90;;;;;;8234549;28;20056;-80
2023/09/11 09:15:09;;;;;;;10.43;8.50;;;27.40;99.90;;;;;;8234515;28;20023;-79
2023/09/11 09:19:09;;;;;;;16.30;8.73;;;27.90;99.90;;;;;;8219211;28;20029;-78
2023/09/11 09:23:12;;;;;;;12.50;8.40;;;28.60;99.90;;;;;;8219071;28;20030;-80
2023/09/11 09:27:12;;;;;;;20.38;8.23;;;28.50;99.90;;;;;;8233796;28;20184;-78
2023/09/11 09:31:23;;;;;;;12.27;7.68;;;28.90;99.90;;;;;;8218398;28;20030;-79
2023/09/11 09:35:32;;;;;;;13.45;7.65;;;29.10;99.90;;;;;;8217047;28;20058;-80
2023/09/11 09:39:40;;;;;;;12.18;7.90;;;28.80;99.90;;;;;;8233873;28;20019;-78
2023/09/11 09:43:52;;;;;;;13.27;8.45;;;28.80;99.90;;;;;;8219379;28;20023;-79
2023/09/11 09:48:08;;;;;;;23.95;11.43;;;29.30;99.90;;;;;;8218670;28;20026;-80
2023/09/11 09:52:08;;;;;;;12.65;8.70;;;29.60;99.90;;;;;;8233484;28;20031;-79
2023/09/11 09:56:11;;;;;;;11.82;8.35;;;29.70;99.90;;;;;;8233176;28;20037;-79
2023/09/11 10:00:16;;;;;;;8.82;7.93;;;29.60;99.90;;;;;;8217658;28;20026;-79
2023/09/11 10:04:17;;;;;;;9.80;8.77;;;29.30;99.90;;;;;;8233432;28;20094;-79
2023/09/11 10:08:17;;;;;;;9.35;8.32;;;29.00;99.90;;;;;;8228547;28;20566;-79
2023/09/11 10:12:18;;;;;;;10.85;8.35;;;29.30;99.90;;;;;;8222093;28;20027;-80
2023/09/11 10:16:18;;;;;;;8.80;7.90;;;29.50;99.90;;;;;;8220019;28;20054;-81
2023/09/11 10:20:21;;;;;;;11.23;7.70;;;29.60;99.90;;;;;;8234841;28;20039;-79
2023/09/11 10:24:22;;;;;;;15.43;7.18;;;30.30;99.90;;;;;;8234391;28;20090;-80
2023/09/11 10:28:33;;;;;;;7.63;6.60;;;30.40;99.90;;;;;;8235414;28;20622;-80
2023/09/11 10:32:47;;;;;;;11.27;6.95;;;31.60;99.90;;;;;;8232946;28;20038;-81
2023/09/11 10:36:55;;;;;;;12.25;7.57;;;31.80;99.90;;;;;;8215831;28;20073;-80
2023/09/11 10:40:57;;;;;;;8.45;7.50;;;32.40;99.90;;;;;;8232149;28;20082;-79
2023/09/11 10:44:57;;;;;;;7.97;6.60;;;32.90;99.90;;;;;;8227434;28;20027;-83
2023/09/11 10:49:00;;;;;;;7.47;6.25;;;33.30;99.90;;;;;;8222380;28;20051;-83
2023/09/11 10:53:02;;;;;;;8.57;5.70;;;33.60;99.40;;;;;;8222862;28;20117;-83
2023/09/11 10:57:05;;;;;;;9.25;5.75;;;33.40;99.90;;;;;;8220770;28;20043;-84
2023/09/11 11:01:05;;;;;;;6.38;5.40;;;33.60;98.20;;;;;;8223764;28;20027;-82
2023/09/11 11:05:14;;;;;;;6.57;5.75;;;32.50;98.10;;;;;;8235515;28;20118;-83
2023/09/11 11:09:27;;;;;;;7.88;7.07;;;32.30;94.90;;;;;;8222187;28;20026;-83
2023/09/11 11:13:28;;;;;;;8.07;5.68;;;33.70;95.70;;;;;;8221972;28;20031;-84
2023/09/11 11:17:38;;;;;;;6.93;6.22;;;32.50;96.20;;;;;;8222467;28;20403;-83
2023/09/11 11:21:40;;;;;;;8.00;6.25;;;32.50;97.30;;;;;;8214644;28;20519;-84
2023/09/11 11:25:42;;;;;;;8.10;5.78;;;34.40;96.40;;;;;;8223314;28;20058;-84
2023/09/11 11:29:43;;;;;;;29.52;26.35;;;35.90;90.60;;;;;;8222941;28;20143;-84
2023/09/11 11:33:46;;;;;;;9.43;6.18;;;36.40;91.30;;;;;;8221823;28;20058;-83
2023/09/11 11:37:47;;;;;;;8.90;6.10;;;36.90;81.20;;;;;;8237560;28;20034;-84
2023/09/11 11:41:49;;;;;;;9.52;6.45;;;37.50;87.40;;;;;;8222505;28;20479;-83
2023/09/11 11:45:50;;;;;;;7.93;5.60;;;37.70;82.30;;;;;;8237498;28;20030;-83
2023/09/11 11:49:53;;;;;;;8.15;5.70;;;35.80;81.40;;;;;;8221260;28;20101;-84
2023/09/11 11:53:53;;;;;;;6.40;5.80;;;34.70;82.70;;;;;;8223177;28;20412;-83
2023/09/11 11:57:54;;;;;;;8.90;6.13;;;34.70;91.50;;;;;;8222703;28;20388;-84
2023/09/11 12:01:54;;;;;;;9.40;5.97;;;36.60;81.00;;;;;;8236581;28;20058;-84
2023/09/11 12:05:57;;;;;;;9.57;5.82;;;37.90;72.30;;;;;;8220088;28;20027;-84
2023/09/11 12:09:57;;;;;;;8.63;6.28;;;38.90;75.40;;;;;;8223239;28;20105;-84
2023/09/11 12:13:58;;;;;;;10.10;6.25;;;36.80;72.90;;;;;;8238326;28;20061;-82
2023/09/11 12:17:59;;;;;;;6.72;5.82;;;36.80;74.70;;;;;;8222055;28;20038;-83
2023/09/11 12:21:59;;;;;;;6.47;5.70;;;35.80;75.00;;;;;;8239323;28;20344;-85
2023/09/11 12:26:02;;;;;;;8.25;5.80;;;37.20;70.80;;;;;;8223425;28;20089;-84
2023/09/11 12:30:05;;;;;;;6.80;6.18;;;38.20;66.30;;;;;;8239404;28;20439;-83
2023/09/11 12:34:06;;;;;;;7.05;6.10;;;38.60;66.30;;;;;;8222641;28;20475;-84
2023/09/11 12:38:11;;;;;;;10.65;6.25;;;36.30;72.30;;;;;;8223437;28;20050;-83
2023/09/11 12:42:13;;;;;;;6.50;5.90;;;36.50;68.90;;;;;;8240039;28;20019;-84
2023/09/11 12:46:15;;;;;;;11.95;6.75;;;38.20;66.20;;;;;;8222348;28;20034;-84
2023/09/11 12:50:16;;;;;;;7.60;6.15;;;38.90;68.00;;;;;;8225515;28;20078;-84
2023/09/11 12:54:17;;;;;;;8.43;6.90;;;38.70;62.70;;;;;;8230439;28;20049;-85
2023/09/11 12:58:17;;;;;;;6.97;6.28;;;39.90;60.50;;;;;;8224808;28;20031;-84
2023/09/11 13:02:18;;;;;;;7.00;6.10;;;40.40;59.80;;;;;;8252068;28;20035;-85
2023/09/11 13:06:19;;;;;;;6.03;5.28;;;41.20;58.10;;;;;;8231117;28;20022;-84
2023/09/11 13:10:20;;;;;;;6.65;6.03;;;40.70;57.30;;;;;;8221536;28;20019;-84
2023/09/11 13:14:21;;;;;;;7.18;5.85;;;41.20;54.50;;;;;;8236403;28;20646;-83
2023/09/11 13:18:21;;;;;;;8.25;5.90;;;41.80;54.70;;;;;;8236195;28;20038;-84
2023/09/11 13:22:22;;;;;;;9.07;5.93;;;41.70;51.90;;;;;;8221615;28;20114;-83
2023/09/11 13:26:23;;;;;;;6.43;5.80;;;40.30;55.40;;;;;;8236301;28;20023;-83
2023/09/11 13:30:23;;;;;;;9.07;6.28;;;40.80;58.70;;;;;;8235944;28;20555;-84
2023/09/11 13:34:24;;;;;;;18.67;7.18;;;41.60;54.30;;;;;;8236259;28;20057;-84
2023/09/11 13:38:24;;;;;;;14.73;6.03;;;40.20;56.00;;;;;;8238780;28;20019;-84
2023/09/11 13:42:25;;;;;;;7.75;5.72;;;40.70;56.30;;;;;;8231116;28;20033;-84
2023/09/11 13:46:26;;;;;;;6.80;5.90;;;41.10;51.30;;;;;;8227417;28;20081;-84
2023/09/11 13:50:26;;;;;;;8.02;6.68;;;40.50;53.10;;;;;;8228212;28;20042;-82
2023/09/11 13:54:27;;;;;;;7.82;6.03;;;38.40;59.70;;;;;;8226766;28;20018;-83
2023/09/11 13:58:27;;;;;;;8.13;5.85;;;36.80;61.40;;;;;;8228380;28;20031;-83
2023/09/11 14:02:28;;;;;;;8.00;6.05;;;36.80;57.00;;;;;;8229301;28;20530;-84
2023/09/11 14:06:28;;;;;;;6.00;5.40;;;38.80;57.80;;;;;;8242083;28;20050;-84
2023/09/11 14:10:29;;;;;;;5.65;5.10;;;40.70;53.60;;;;;;8227324;28;20039;-84
2023/09/11 14:14:31;;;;;;;7.30;5.20;;;41.80;53.50;;;;;;8242456;28;20027;-84
2023/09/11 14:18:32;;;;;;;7.45;5.63;;;42.30;51.50;;;;;;8225974;28;20034;-84
2023/09/11 14:22:33;;;;;;;7.50;5.72;;;42.50;48.90;;;;;;8227661;28;20527;-83
2023/09/11 14:26:33;;;;;;;7.57;5.72;;;39.40;54.60;;;;;;8242845;28;20023;-83
2023/09/11 14:30:34;;;;;;;7.05;5.70;;;40.70;55.00;;;;;;8242917;28;20118;-83
2023/09/11 14:34:35;;;;;;;6.22;5.50;;;41.10;48.70;;;;;;8242403;28;20033;-83
2023/09/11 14:38:35;;;;;;;6.88;5.85;;;41.70;51.60;;;;;;8241807;28;20442;-83
2023/09/11 14:42:36;;;;;;;13.40;5.70;;;41.80;51.80;;;;;;8224644;28;20077;-84
2023/09/11 14:46:37;;;;;;;6.50;5.90;;;41.80;48.90;;;;;;8225067;28;20121;-84
2023/09/11 14:50:37;;;;;;;8.32;5.68;;;42.30;49.60;;;;;;8224584;28;20564;-84
2023/09/11 14:54:38;;;;;;;6.57;5.97;;;42.20;50.40;;;;;;8222270;28;20033;-83
2023/09/11 14:58:38;;;;;;;6.90;5.70;;;42.00;52.20;;;;;;8224007;28;20073;-83
2023/09/11 15:02:39;;;;;;;7.20;5.70;;;41.50;51.30;;;;;;8222836;28;20023;-84
2023/09/11 15:06:39;;;;;;;7.35;6.10;;;40.60;49.70;;;;;;8223889;28;20065;-84
2023/09/11 15:10:42;;;;;;;7.28;6.57;;;37.20;55.90;;;;;;8224557;28;20101;-84
2023/09/11 15:14:43;;;;;;;9.77;6.53;;;34.50;59.40;;;;;;8218497;28;20038;-82
2023/09/11 15:18:44;;;;;;;7.32;6.28;;;32.70;71.10;;;;;;8232715;28;20031;-83
2023/09/11 15:22:44;;;;;;;7.47;6.68;;;31.20;70.90;;;;;;8232752;28;20034;-83
2023/09/11 15:26:45;;;;;;;6.97;6.28;;;30.40;79.10;;;;;;8220033;28;20034;-83
2023/09/11 15:30:53;;;;;;;11.57;6.93;;;29.70;82.10;;;;;;8223129;28;20574;-82
2023/09/11 15:34:53;;;;;;;7.90;6.70;;;29.30;88.20;;;;;;8224954;28;20106;-83
2023/09/11 15:38:54;;;;;;;8.43;6.53;;;29.00;87.40;;;;;;8225798;28;20384;-82
2023/09/11 15:42:54;;;;;;;7.75;6.60;;;29.30;85.40;;;;;;8225414;28;20083;-83
2023/09/11 15:46:55;;;;;;;6.90;6.25;;;29.40;81.30;;;;;;8224018;28;20081;-83
2023/09/11 15:50:55;;;;;;;8.75;6.63;;;29.10;84.50;;;;;;8224285;28;20073;-82
2023/09/11 15:54:56;;;;;;;12.63;6.80;;;28.90;89.60;;;;;;8240559;28;20204;-83
2023/09/11 15:58:56;;;;;;;9.50;6.95;;;28.70;87.20;;;;;;8240828;28;20572;-83
2023/09/11 16:02:57;;;;;;;7.65;6.78;;;28.60;89.60;;;;;;8223068;28;20046;-83
2023/09/11 16:06:57;;;;;;;6.40;5.75;;;28.40;92.70;;;;;;8224845;28;20045;-83
2023/09/11 16:10:58;;;;;;;8.77;6.57;;;28.30;91.40;;;;;;8227121;28;20065;-82
2023/09/11 16:14:58;;;;;;;7.68;6.28;;;28.10;91.20;;;;;;8186990;23;20052;-80
2023/09/11 16:18:59;;;;;;;8.15;6.85;;;27.90;93.10;;;;;;8125957;29;20106;-80
2023/09/11 16:23:01;;;;;;;7.65;6.80;;;27.80;95.40;;;;;;8120412;29;20031;-80
2023/09/11 16:27:01;;;;;;;9.15;7.00;;;27.70;96.30;;;;;;8137339;29;20044;-80
2023/09/11 16:31:02;;;;;;;12.10;6.78;;;27.60;98.10;;;;;;8134515;29;20058;-81
2023/09/11 16:35:03;;;;;;;8.75;6.97;;;27.40;99.80;;;;;;8121938;29;20028;-78
2023/09/11 16:39:03;;;;;;;9.23;7.53;;;27.20;99.90;;;;;;8136321;29;20404;-80
2023/09/11 16:43:04;;;;;;;9.20;7.10;;;27.00;99.90;;;;;;8139434;29;20177;-79
2023/09/11 16:47:05;;;;;;;11.63;7.43;;;26.80;99.90;;;;;;8137398;29;20461;-80
2023/09/11 16:51:06;;;;;;;8.48;7.10;;;26.60;99.90;;;;;;8137116;29;20027;-80
2023/09/11 16:55:07;;;;;;;11.60;7.18;;;26.20;99.90;;;;;;8125149;29;20033;-81
2023/09/11 16:59:07;;;;;;;10.13;7.32;;;25.80;99.90;;;;;;8146110;29;20035;-80
2023/09/11 17:03:08;;;;;;;8.80;7.63;;;25.40;99.90;;;;;;8139602;29;20139;-79
2023/09/11 17:07:08;;;;;;;11.90;7.90;;;25.20;99.90;;;;;;8120383;29;20067;-80
2023/09/11 17:11:09;;;;;;;9.52;8.35;;;25.10;99.90;;;;;;8123069;29;20028;-80
2023/09/11 17:15:09;;;;;;;9.73;7.85;;;25.10;99.90;;;;;;8129854;29;20028;-79
2023/09/11 17:19:10;;;;;;;8.60;7.63;;;24.90;99.90;;;;;;8127863;29;20126;-79
2023/09/11 17:23:11;;;;;;;10.95;8.43;;;24.60;99.90;;;;;;8123979;29;20028;-80
2023/09/11 17:27:12;;;;;;;15.25;8.40;;;24.20;99.90;;;;;;8140112;29;20058;-79
2023/09/11 17:31:12;;;;;;;13.05;9.32;;;23.80;99.90;;;;;;8132314;29;20028;-78
2023/09/11 17:35:13;;;;;;;20.63;11.45;;;23.60;99.90;;;;;;8130688;29;20091;-79
2023/09/11 17:39:14;;;;;;;27.00;12.23;;;23.60;99.90;;;;;;8126301;29;20063;-80
2023/09/11 17:43:15;;;;;;;43.22;18.13;;;23.50;99.90;;;;;;8127195;29;20670;-79
2023/09/11 17:47:16;;;;;;;9.65;8.45;;;23.20;99.90;;;;;;8125475;29;20028;-79
2023/09/11 17:51:17;;;;;;;9.20;7.93;;;22.90;99.90;;;;;;8125481;29;20576;-79
2023/09/11 17:55:17;;;;;;;9.85;7.93;;;22.80;99.90;;;;;;8124579;29;20047;-79
2023/09/11 17:59:18;;;;;;;8.85;7.95;;;22.80;99.90;;;;;;8138047;29;20807;-79
2023/09/11 18:03:18;;;;;;;11.70;8.50;;;22.50;99.90;;;;;;8139730;29;20072;-78
2023/09/11 18:07:19;;;;;;;10.43;9.00;;;22.40;99.90;;;;;;8146436;29;20032;-79
2023/09/11 18:11:20;;;;;;;8.88;7.82;;;22.30;99.90;;;;;;8131047;29;20021;-79
2023/09/11 18:15:20;;;;;;;10.02;8.32;;;22.10;99.90;;;;;;8141314;29;20139;-79
2023/09/11 18:19:21;;;;;;;9.57;8.50;;;21.80;99.90;;;;;;8145366;29;20500;-79
2023/09/11 18:23:21;;;;;;;8.90;8.05;;;21.50;99.90;;;;;;8124198;29;20016;-78
2023/09/11 18:27:22;;;;;;;11.65;8.52;;;21.10;99.90;;;;;;8124777;29;20032;-79
2023/09/11 18:31:22;;;;;;;11.88;10.15;;;20.80;99.90;;;;;;8123977;29;20032;-80
2023/09/11 18:35:23;;;;;;;11.27;9.25;;;20.60;99.90;;;;;;8125583;29;20017;-79
2023/09/11 18:39:26;;;;;;;16.33;10.60;;;20.40;99.90;;;;;;8123306;29;20443;-81
2023/09/11 18:43:27;;;;;;;12.80;10.38;;;20.20;99.90;;;;;;8130351;29;20027;-81
2023/09/11 18:47:34;;;;;;;12.40;10.65;;;20.20;99.90;;;;;;8159101;29;20039;-82
2023/09/11 18:51:35;;;;;;;12.70;10.50;;;20.40;99.90;;;;;;8128637;29;20024;-82
2023/09/11 18:55:35;;;;;;;13.10;9.75;;;20.90;99.90;;;;;;8126771;29;20571;-81
2023/09/11 18:59:36;;;;;;;12.30;10.15;;;20.50;99.90;;;;;;8149692;29;20096;-81
2023/09/11 19:03:36;;;;;;;13.93;10.73;;;20.00;99.90;;;;;;8156437;29;20199;-81
2023/09/11 19:07:37;;;;;;;12.40;10.32;;;19.70;99.90;;;;;;8126615;29;20566;-83
2023/09/11 19:11:37;;;;;;;12.35;11.05;;;19.40;99.90;;;;;;8138857;29;20057;-84
2023/09/11 19:15:38;;;;;;;17.30;11.18;;;19.20;99.90;;;;;;8156240;28;20719;-82
2023/09/11 19:19:38;;;;;;;14.93;12.15;;;18.80;99.90;;;;;;8126622;29;20035;-82
2023/09/11 19:23:39;;;;;;;15.50;12.02;;;18.80;99.90;;;;;;8141230;29;20035;-82
2023/09/11 19:27:40;;;;;;;14.00;11.38;;;18.80;99.90;;;;;;8143616;29;20032;-82
2023/09/11 19:31:40;;;;;;;15.18;12.13;;;18.50;99.90;;;;;;8141339;29;20374;-82
2023/09/11 19:35:41;;;;;;;16.63;13.25;;;18.50;99.90;;;;;;8136930;29;20024;-82
2023/09/11 19:39:41;;;;;;;14.63;11.13;;;18.60;99.90;;;;;;8138152;29;20759;-82
2023/09/11 19:43:44;;;;;;;12.63;10.10;;;18.40;99.90;;;;;;8142235;29;20035;-82
2023/09/11 19:47:45;;;;;;;14.68;12.15;;;18.20;99.90;;;;;;8142117;29;20032;-82
2023/09/11 19:51:45;;;;;;;16.70;12.65;;;18.30;99.90;;;;;;8151764;29;20790;-82
2023/09/11 19:55:46;;;;;;;16.65;13.15;;;18.00;99.90;;;;;;8144092;29;20036;-82
2023/09/11 19:59:48;;;;;;;18.58;13.27;;;17.90;99.90;;;;;;8143190;29;20028;-82
2023/09/11 20:03:49;;;;;;;18.10;12.68;;;17.90;99.90;;;;;;8141475;29;20103;-82
2023/09/11 20:07:53;;;;;;;16.65;14.80;;;18.00;99.90;;;;;;8128668;29;20550;-82
2023/09/11 20:11:53;;;;;;;15.63;13.07;;;18.00;99.90;;;;;;8151016;29;20023;-82
2023/09/11 20:15:54;;;;;;;16.50;12.80;;;18.10;99.90;;;;;;8150332;29;20532;-82
2023/09/11 20:19:56;;;;;;;15.40;12.40;;;17.80;99.90;;;;;;8156509;29;20023;-82
2023/09/11 20:23:57;;;;;;;14.48;12.95;;;17.60;99.90;;;;;;8149864;29;20121;-82
2023/09/11 20:27:57;;;;;;;19.13;14.50;;;17.60;99.90;;;;;;8123639;29;20029;-82
2023/09/11 20:31:58;;;;;;;16.45;13.43;;;17.50;99.90;;;;;;8133593;29;20031;-82
2023/09/11 20:35:58;;;;;;;15.10;12.93;;;17.50;99.90;;;;;;8144606;29;20036;-82
2023/09/11 20:39:59;;;;;;;17.42;14.57;;;17.40;99.90;;;;;;8150919;29;20025;-82